createdAt,value
2022-12-08T00:00:52.221Z,40.20
2022-12-08T00:03:23.015Z,38.10
2022-12-08T00:06:16.548Z,40.40
2022-12-08T00:09:04.764Z,41.80
2022-12-08T00:11:35.605Z,43.10
2022-12-08T00:14:06.263Z,46.50
2022-12-08T00:16:37.254Z,40.40
2022-12-08T00:19:07.859Z,41.30
2022-12-08T00:21:38.151Z,47.10
2022-12-08T00:24:09.063Z,39.00
2022-12-08T00:26:40.347Z,40.30
2022-12-08T00:29:16.997Z,38.80
2022-12-08T00:31:48.154Z,40.10
2022-12-08T00:34:18.767Z,37.00
2022-12-08T00:36:49.524Z,38.10
2022-12-08T00:39:20.315Z,42.50
2022-12-08T00:42:08.393Z,40.60
2022-12-08T00:44:39.230Z,36.50
2022-12-08T00:47:09.733Z,43.10
2022-12-08T00:49:40.561Z,36.30
2022-12-08T00:52:12.694Z,36.70
2022-12-08T00:54:43.017Z,42.10
2022-12-08T00:57:13.342Z,32.40
2022-12-08T00:59:43.947Z,41.70
2022-12-08T01:02:14.394Z,39.20
2022-12-08T01:04:45.106Z,35.60
2022-12-08T01:07:15.508Z,31.60
2022-12-08T01:09:45.783Z,39.60
2022-12-08T01:12:16.198Z,39.60
2022-12-08T01:14:47.114Z,31.50
2022-12-08T01:17:17.515Z,35.30
2022-12-08T01:19:47.894Z,36.30
2022-12-08T01:22:18.250Z,29.70
2022-12-08T01:24:48.713Z,32.60
2022-12-08T01:27:19.404Z,32.90
2022-12-08T01:29:49.859Z,36.70
2022-12-08T01:32:20.397Z,36.00
2022-12-08T01:34:50.710Z,35.10
2022-12-08T01:37:21.194Z,35.00
2022-12-08T01:39:51.540Z,32.30
2022-12-08T01:42:24.296Z,40.00
2022-12-08T01:45:00.591Z,29.80
2022-12-08T01:47:36.661Z,33.40
2022-12-08T01:50:11.365Z,33.50
2022-12-08T01:52:47.237Z,33.50
2022-12-08T01:55:22.976Z,31.20
2022-12-08T01:57:57.024Z,36.80
2022-12-08T02:00:27.731Z,37.00
2022-12-08T02:03:01.822Z,30.30
2022-12-08T02:05:34.811Z,34.70
2022-12-08T02:08:08.745Z,33.40
2022-12-08T02:10:41.694Z,28.90
2022-12-08T02:13:16.277Z,32.40
2022-12-08T02:15:58.930Z,33.90
2022-12-08T02:18:43.857Z,35.60
2022-12-08T02:21:19.427Z,36.00
2022-12-08T02:23:58.308Z,27.00
2022-12-08T02:26:58.786Z,33.20
2022-12-08T02:29:53.689Z,32.10
2022-12-08T02:32:45.822Z,33.80
2022-12-08T02:35:23.318Z,34.60
2022-12-08T02:38:05.478Z,30.40
2022-12-08T02:40:44.154Z,29.60
2022-12-08T02:43:21.442Z,31.20
2022-12-08T02:45:56.376Z,30.90
2022-12-08T02:48:29.526Z,35.60
2022-12-08T02:51:00.090Z,28.60
2022-12-08T02:53:33.188Z,26.50
2022-12-08T02:56:14.969Z,31.40
2022-12-08T02:59:15.068Z,29.40
2022-12-08T03:02:01.044Z,29.40
2022-12-08T03:04:43.230Z,28.40
2022-12-08T03:07:22.414Z,27.10
2022-12-08T03:09:57.663Z,31.60
2022-12-08T03:12:33.315Z,33.60
2022-12-08T03:15:08.835Z,27.10
2022-12-08T03:17:41.202Z,30.40
2022-12-08T03:20:17.463Z,28.80
2022-12-08T03:22:50.312Z,24.80
2022-12-08T03:25:26.779Z,28.80
2022-12-08T03:27:57.672Z,34.10
2022-12-08T03:30:30.953Z,27.40
2022-12-08T03:33:06.063Z,30.00
2022-12-08T03:35:40.334Z,28.30
2022-12-08T03:38:14.556Z,30.30
2022-12-08T03:41:05.821Z,33.50
2022-12-08T03:43:36.480Z,32.50
2022-12-08T03:46:06.987Z,31.20
2022-12-08T03:48:37.532Z,37.50
2022-12-08T03:51:07.927Z,30.50
2022-12-08T03:53:38.647Z,34.50
2022-12-08T03:56:20.592Z,23.10
2022-12-08T03:58:53.250Z,28.30
2022-12-08T04:01:24.191Z,33.10
2022-12-08T04:03:55.240Z,35.10
2022-12-08T04:06:25.594Z,35.40
2022-12-08T04:08:56.071Z,33.50
2022-12-08T04:11:26.509Z,30.10
2022-12-08T04:13:56.921Z,34.60
2022-12-08T04:16:28.551Z,29.30
2022-12-08T04:18:59.023Z,34.70
2022-12-08T04:21:29.528Z,30.90
2022-12-08T04:24:01.428Z,34.20
2022-12-08T04:26:32.189Z,29.80
2022-12-08T04:29:02.670Z,32.80
2022-12-08T04:31:33.066Z,35.20
2022-12-08T04:34:03.869Z,30.60
2022-12-08T04:36:34.282Z,35.00
2022-12-08T04:39:05.183Z,31.60
2022-12-08T04:41:35.824Z,32.30
2022-12-08T04:44:06.354Z,28.10
2022-12-08T04:46:41.706Z,34.80
2022-12-08T04:49:13.823Z,28.10
2022-12-08T04:51:44.385Z,29.20
2022-12-08T04:54:14.875Z,34.20
2022-12-08T04:56:45.202Z,30.90
2022-12-08T04:59:15.618Z,35.30
2022-12-08T05:01:46.089Z,34.70
2022-12-08T05:04:16.790Z,32.10
2022-12-08T05:06:47.169Z,34.30
2022-12-08T05:09:17.660Z,29.10
2022-12-08T05:11:49.210Z,33.10
2022-12-08T05:14:21.219Z,27.70
2022-12-08T05:16:51.620Z,29.30
2022-12-08T05:19:22.151Z,28.10
2022-12-08T05:21:52.599Z,35.00
2022-12-08T05:24:23.060Z,40.00
2022-12-08T05:26:53.438Z,33.80
2022-12-08T05:29:23.832Z,37.30
2022-12-08T05:31:54.192Z,33.80
2022-12-08T05:34:24.777Z,34.20
2022-12-08T05:36:55.093Z,31.30
2022-12-08T05:39:25.587Z,33.30
2022-12-08T05:41:56.026Z,29.70
2022-12-08T05:44:26.869Z,29.50
2022-12-08T05:46:57.320Z,31.20
2022-12-08T05:49:27.747Z,29.40
2022-12-08T05:51:58.076Z,30.30
2022-12-08T05:54:28.444Z,30.80
2022-12-08T05:56:58.863Z,31.20
2022-12-08T05:59:29.352Z,35.30
2022-12-08T06:01:59.972Z,34.90
2022-12-08T06:04:30.557Z,27.00
2022-12-08T06:07:00.900Z,27.70
2022-12-08T06:09:32.805Z,27.30
2022-12-08T06:12:03.869Z,30.90
2022-12-08T06:14:34.589Z,32.00
2022-12-08T06:17:04.992Z,35.20
2022-12-08T06:19:35.496Z,31.20
2022-12-08T06:22:05.985Z,34.80
2022-12-08T06:24:36.336Z,36.60
2022-12-08T06:27:06.719Z,31.30
2022-12-08T06:29:37.168Z,29.20
2022-12-08T06:32:07.937Z,29.20
2022-12-08T06:34:38.342Z,31.70
2022-12-08T06:37:08.777Z,33.50
2022-12-08T06:39:39.373Z,25.90
2022-12-08T06:42:36.563Z,33.40
2022-12-08T06:45:08.382Z,31.30
2022-12-08T06:47:39.029Z,33.60
2022-12-08T06:50:14.216Z,29.50
2022-12-08T06:52:56.888Z,28.40
2022-12-08T06:55:58.675Z,32.20
2022-12-08T06:58:19.687Z,29.90
2022-12-08T07:00:50.211Z,28.60
2022-12-08T07:03:20.803Z,30.10
2022-12-08T07:05:51.269Z,32.60
2022-12-08T07:08:21.682Z,29.70
2022-12-08T07:10:52.545Z,31.40
2022-12-08T07:13:23.192Z,34.30
2022-12-08T07:15:53.671Z,32.00
2022-12-08T07:18:24.053Z,35.80
2022-12-08T07:20:54.508Z,32.50
2022-12-08T07:23:24.889Z,29.20
2022-12-08T07:25:55.296Z,32.80
2022-12-08T07:28:25.782Z,42.30
2022-12-08T07:30:56.173Z,38.00
2022-12-08T07:33:27.073Z,31.80
2022-12-08T07:35:59.537Z,31.30
2022-12-08T07:38:30.735Z,29.10
2022-12-08T07:41:01.274Z,36.60
2022-12-08T07:43:32.617Z,34.90
2022-12-08T07:48:32.098Z,32.20
2022-12-08T07:51:06.289Z,35.90
2022-12-08T07:53:37.110Z,37.00
2022-12-08T07:56:11.108Z,32.60
2022-12-08T07:58:42.751Z,36.30
2022-12-08T08:01:26.743Z,33.80
2022-12-08T08:04:01.747Z,29.60
2022-12-08T08:06:32.953Z,33.50
2022-12-08T08:09:03.509Z,34.00
2022-12-08T08:11:33.996Z,33.20
2022-12-08T08:14:04.760Z,34.80
2022-12-08T08:16:38.578Z,32.70
2022-12-08T08:19:09.556Z,33.50
2022-12-08T08:21:47.423Z,33.40
2022-12-08T08:24:18.331Z,31.40
2022-12-08T08:26:48.693Z,28.60
2022-12-08T08:29:19.421Z,34.10
2022-12-08T08:31:49.839Z,32.50
2022-12-08T08:34:20.924Z,33.00
2022-12-08T08:36:51.431Z,35.50
2022-12-08T08:39:21.871Z,30.40
2022-12-08T08:41:52.522Z,34.50
2022-12-08T08:44:23.284Z,36.60
2022-12-08T08:46:54.118Z,34.20
2022-12-08T08:49:24.658Z,32.90
2022-12-08T08:51:55.338Z,33.80
2022-12-08T08:54:25.777Z,37.30
2022-12-08T08:56:56.564Z,33.90
2022-12-08T08:59:27.220Z,34.50
2022-12-08T09:01:58.005Z,34.80
2022-12-08T09:04:28.499Z,26.50
2022-12-08T09:06:59.575Z,29.80
2022-12-08T09:09:30.969Z,34.60
2022-12-08T09:14:30.630Z,33.40
2022-12-08T09:17:01.272Z,34.30
2022-12-08T09:19:31.758Z,38.40
2022-12-08T09:22:02.249Z,34.30
2022-12-08T09:24:33.017Z,36.60
2022-12-08T09:27:03.486Z,39.90
2022-12-08T09:29:36.265Z,33.10
2022-12-08T09:32:07.650Z,38.00
2022-12-08T09:34:38.134Z,31.10
2022-12-08T09:37:08.988Z,34.40
2022-12-08T09:39:39.403Z,35.00
2022-12-08T09:42:11.287Z,29.70
2022-12-08T09:44:52.045Z,35.30
2022-12-08T09:47:30.732Z,32.70
2022-12-08T09:50:09.092Z,32.30
2022-12-08T09:52:46.291Z,30.80
2022-12-08T09:55:25.390Z,32.30
2022-12-08T09:58:04.219Z,29.30
2022-12-08T10:00:35.369Z,29.40
2022-12-08T10:03:12.368Z,30.00
2022-12-08T10:05:54.528Z,28.90
2022-12-08T10:08:32.074Z,31.50
2022-12-08T10:11:11.848Z,32.00
2022-12-08T10:13:49.605Z,30.10
2022-12-08T10:16:30.294Z,27.50
2022-12-08T10:19:14.606Z,26.10
2022-12-08T10:21:45.649Z,31.20
2022-12-08T10:24:27.908Z,30.80
2022-12-08T10:26:59.053Z,28.10
2022-12-08T10:29:29.699Z,32.20
2022-12-08T10:32:01.744Z,30.00
2022-12-08T10:34:32.694Z,35.60
2022-12-08T10:37:09.893Z,34.50
2022-12-08T10:39:43.907Z,29.50
2022-12-08T10:42:22.915Z,29.00
2022-12-08T10:45:00.299Z,30.30
2022-12-08T10:47:36.354Z,31.40
2022-12-08T10:50:34.548Z,32.60
2022-12-08T10:53:16.626Z,35.50
2022-12-08T10:55:49.562Z,32.50
2022-12-08T10:58:35.804Z,33.40
2022-12-08T11:01:12.668Z,32.00
2022-12-08T11:03:49.838Z,31.30
2022-12-08T11:06:24.781Z,30.70
2022-12-08T11:08:56.917Z,30.60
2022-12-08T11:11:45.374Z,34.20
2022-12-08T11:14:20.715Z,36.70
2022-12-08T11:16:53.157Z,33.70
2022-12-08T11:19:27.788Z,35.70
2022-12-08T11:21:58.165Z,31.90
2022-12-08T11:24:36.040Z,31.10
2022-12-08T11:27:09.632Z,33.60
2022-12-08T11:29:40.336Z,34.10
2022-12-08T11:32:14.888Z,32.90
2022-12-08T11:34:49.452Z,30.80
2022-12-08T11:37:28.575Z,34.90
2022-12-08T11:40:06.605Z,30.90
2022-12-08T11:42:47.547Z,36.20
2022-12-08T11:45:25.643Z,30.20
2022-12-08T11:48:05.762Z,31.50
2022-12-08T11:50:44.621Z,31.90
2022-12-08T11:53:23.565Z,32.50
2022-12-08T11:55:59.152Z,33.80
2022-12-08T11:58:37.300Z,28.60
2022-12-08T12:01:16.286Z,29.20
2022-12-08T12:03:54.034Z,31.80
2022-12-08T12:06:58.984Z,28.50
2022-12-08T12:09:43.808Z,30.10
2022-12-08T12:12:30.303Z,28.50
2022-12-08T12:15:30.022Z,28.60
2022-12-08T12:18:04.554Z,30.90
2022-12-08T12:20:39.987Z,27.80
2022-12-08T12:23:20.942Z,29.20
2022-12-08T12:25:57.205Z,28.30
2022-12-08T12:28:31.736Z,25.50
2022-12-08T12:31:07.413Z,29.30
2022-12-08T12:33:38.679Z,26.00
2022-12-08T12:36:12.188Z,25.00
2022-12-08T12:39:06.380Z,27.60
2022-12-08T12:41:44.677Z,25.60
2022-12-08T12:44:44.518Z,33.50
2022-12-08T12:47:37.100Z,27.00
2022-12-08T12:50:13.313Z,28.80
2022-12-08T12:52:53.317Z,27.10
2022-12-08T12:55:30.041Z,23.90
2022-12-08T12:58:04.673Z,26.60
2022-12-08T13:00:35.349Z,24.60
2022-12-08T13:03:06.232Z,27.80
2022-12-08T13:05:50.584Z,28.20
2022-12-08T13:08:25.694Z,24.40
2022-12-08T13:11:03.995Z,24.50
2022-12-08T13:13:34.815Z,24.20
2022-12-08T13:16:19.122Z,30.00
2022-12-08T13:18:52.364Z,26.50
2022-12-08T13:21:24.600Z,24.60
2022-12-08T13:24:19.886Z,26.40
2022-12-08T13:26:52.167Z,26.30
2022-12-08T13:29:25.575Z,28.10
2022-12-08T13:31:57.699Z,24.60
2022-12-08T13:34:41.248Z,21.90
2022-12-08T13:37:26.522Z,21.20
2022-12-08T13:40:00.490Z,21.30
2022-12-08T13:42:42.011Z,23.10
2022-12-08T13:48:36.740Z,19.50
2022-12-08T13:57:10.552Z,21.20
2022-12-08T13:59:46.562Z,21.80
2022-12-08T14:02:27.885Z,22.00
2022-12-08T14:07:50.842Z,25.20
2022-12-08T14:10:24.438Z,24.20
2022-12-08T14:13:00.498Z,20.70
2022-12-08T14:15:37.788Z,23.60
2022-12-08T14:18:26.468Z,25.10
2022-12-08T14:21:21.960Z,20.60
2022-12-08T14:23:55.067Z,23.60
2022-12-08T14:26:29.636Z,21.80
2022-12-08T14:29:02.786Z,23.70
2022-12-08T14:31:36.531Z,20.10
2022-12-08T14:34:07.403Z,17.50
2022-12-08T14:39:12.033Z,22.80
2022-12-08T14:42:06.578Z,19.90
2022-12-08T14:44:57.620Z,21.00
2022-12-08T14:47:34.460Z,21.70
2022-12-08T14:50:27.941Z,20.30
2022-12-08T14:52:58.558Z,22.00
2022-12-08T14:55:30.112Z,24.00
2022-12-08T14:58:00.694Z,23.00
2022-12-08T15:00:34.995Z,24.40
2022-12-08T15:03:10.836Z,23.80
2022-12-08T15:05:41.497Z,25.10
2022-12-08T15:08:13.945Z,25.30
2022-12-08T15:10:48.262Z,25.60
2022-12-08T15:13:30.132Z,22.00
2022-12-08T15:16:02.742Z,25.50
2022-12-08T15:18:39.538Z,22.80
2022-12-08T15:21:12.953Z,25.30
2022-12-08T15:23:46.173Z,24.00
2022-12-08T15:26:22.193Z,25.20
2022-12-08T15:28:56.115Z,22.80
2022-12-08T15:31:26.711Z,30.30
2022-12-08T15:33:57.224Z,29.30
2022-12-08T15:36:27.524Z,25.80
2022-12-08T15:38:57.970Z,24.80
2022-12-08T15:41:28.525Z,24.60
2022-12-08T15:43:59.126Z,26.70
2022-12-08T15:46:29.804Z,30.50
2022-12-08T15:49:00.348Z,25.10
2022-12-08T15:51:36.506Z,32.60
2022-12-08T15:54:07.246Z,25.10
2022-12-08T15:56:45.416Z,23.90
2022-12-08T15:59:28.562Z,33.10
2022-12-08T16:01:59.363Z,30.30
2022-12-08T16:05:25.100Z,27.50
2022-12-08T16:07:26.207Z,26.00
2022-12-08T16:09:57.915Z,26.00
2022-12-08T16:16:00.708Z,27.70
2022-12-08T16:18:34.312Z,26.70
2022-12-08T16:21:31.692Z,23.70
2022-12-08T16:23:56.076Z,33.80
2022-12-08T16:27:22.543Z,28.00
2022-12-08T16:29:22.532Z,30.00
2022-12-08T16:31:53.345Z,28.90
2022-12-08T16:34:23.762Z,25.60
2022-12-08T16:36:54.695Z,25.10
2022-12-08T16:39:25.268Z,23.50
2022-12-08T16:42:13.696Z,26.10
2022-12-08T16:44:44.518Z,24.60
2022-12-08T16:47:14.962Z,22.90
2022-12-08T16:49:45.282Z,26.40
2022-12-08T16:52:15.778Z,24.70
2022-12-08T16:54:46.224Z,28.20
2022-12-08T16:57:17.010Z,29.30
2022-12-08T16:59:47.738Z,24.30
2022-12-08T17:02:18.260Z,22.60
2022-12-08T17:04:49.063Z,25.00
2022-12-08T17:07:19.649Z,25.00
2022-12-08T17:09:50.103Z,24.20
2022-12-08T17:12:20.710Z,25.10
2022-12-08T17:14:51.535Z,26.90
2022-12-08T17:17:22.191Z,27.70
2022-12-08T17:19:52.908Z,29.60
2022-12-08T17:22:23.597Z,27.70
2022-12-08T17:24:54.291Z,29.10
2022-12-08T17:27:24.907Z,27.70
2022-12-08T17:29:55.564Z,32.00
2022-12-08T17:32:27.059Z,32.50
2022-12-08T17:34:58.026Z,30.00
2022-12-08T17:37:28.581Z,31.80
2022-12-08T17:39:59.210Z,27.90
2022-12-08T17:42:29.946Z,31.60
2022-12-08T17:45:00.484Z,30.50
2022-12-08T17:47:31.009Z,33.80
2022-12-08T17:50:01.853Z,36.60
2022-12-08T17:52:32.473Z,33.10
2022-12-08T17:55:03.056Z,29.70
2022-12-08T17:57:33.642Z,34.90
2022-12-08T18:00:05.423Z,32.80
2022-12-08T18:02:42.711Z,30.50
2022-12-08T18:05:13.264Z,29.90
2022-12-08T18:07:43.763Z,30.30
2022-12-08T18:10:14.427Z,29.40
2022-12-08T18:12:45.077Z,29.20
2022-12-08T18:15:19.693Z,32.10
2022-12-08T18:17:50.053Z,28.60
2022-12-08T18:20:20.670Z,33.20
2022-12-08T18:22:51.052Z,31.90
2022-12-08T18:25:21.878Z,25.30
2022-12-08T18:27:52.269Z,29.80
2022-12-08T18:30:23.361Z,33.90
2022-12-08T18:32:57.331Z,33.10
2022-12-08T18:35:28.948Z,27.10
2022-12-08T18:38:00.247Z,31.50
2022-12-08T18:40:31.036Z,35.60
2022-12-08T18:43:01.794Z,33.30
2022-12-08T18:45:32.736Z,34.50
2022-12-08T18:48:03.522Z,29.70
2022-12-08T18:50:34.051Z,27.90
2022-12-08T18:53:04.477Z,36.80
2022-12-08T18:55:35.071Z,33.40
2022-12-08T18:58:05.649Z,28.40
2022-12-08T19:00:36.216Z,33.10
2022-12-08T19:03:06.840Z,31.70
2022-12-08T19:05:37.375Z,30.30
2022-12-08T19:08:08.993Z,27.70
2022-12-08T19:10:40.334Z,27.30
2022-12-08T19:15:40.183Z,29.50
2022-12-08T19:18:10.768Z,28.10
2022-12-08T19:20:41.159Z,29.10
2022-12-08T19:23:12.578Z,26.50
2022-12-08T19:28:12.144Z,25.20
2022-12-08T19:30:42.640Z,27.60
2022-12-08T19:33:13.236Z,31.10
2022-12-08T19:35:47.609Z,25.60
2022-12-08T19:38:22.656Z,27.70
2022-12-08T19:41:10.723Z,25.70
2022-12-08T19:43:59.109Z,31.90
2022-12-08T19:46:29.750Z,30.50
2022-12-08T19:49:00.333Z,25.30
2022-12-08T19:51:30.771Z,26.30
2022-12-08T19:54:01.309Z,29.80
2022-12-08T19:56:31.706Z,30.50
2022-12-08T19:59:02.505Z,28.80
2022-12-08T20:01:33.095Z,29.20
2022-12-08T20:04:03.796Z,30.10
2022-12-08T20:06:34.358Z,33.60
2022-12-08T20:09:05.001Z,35.20
2022-12-08T20:11:35.902Z,31.60
2022-12-08T20:14:06.604Z,28.00
2022-12-08T20:16:37.596Z,35.00
2022-12-08T20:19:08.101Z,34.80
2022-12-08T20:21:39.891Z,30.90
2022-12-08T20:24:10.866Z,29.10
2022-12-08T20:26:41.407Z,35.80
2022-12-08T20:29:12.447Z,31.60
2022-12-08T20:31:43.110Z,37.30
2022-12-08T20:34:17.443Z,32.30
2022-12-08T20:36:48.579Z,29.60
2022-12-08T20:39:20.576Z,38.40
2022-12-08T20:41:52.319Z,53.70
2022-12-08T20:44:23.000Z,32.60
2022-12-08T20:46:53.621Z,61.60
2022-12-08T20:49:26.321Z,36.20
2022-12-08T20:52:00.492Z,34.40
2022-12-08T20:54:35.528Z,30.50
2022-12-08T20:57:06.112Z,30.60
2022-12-08T20:59:36.620Z,39.50
2022-12-08T21:02:07.801Z,37.20
2022-12-08T21:04:38.642Z,32.00
2022-12-08T21:07:09.817Z,34.70
2022-12-08T21:09:40.716Z,33.50
2022-12-08T21:12:11.590Z,34.60
2022-12-08T21:14:42.443Z,32.00
2022-12-08T21:17:13.102Z,32.50
2022-12-08T21:19:43.918Z,41.20
2022-12-08T21:22:14.919Z,35.50
2022-12-08T21:24:45.815Z,39.40
2022-12-08T21:27:16.444Z,33.80
2022-12-08T21:29:47.194Z,35.40
2022-12-08T21:32:18.897Z,29.70
2022-12-08T21:34:49.826Z,30.10
2022-12-08T21:37:20.492Z,37.30
2022-12-08T21:39:51.523Z,36.80
2022-12-08T21:42:39.753Z,36.10
2022-12-08T21:45:12.882Z,38.00
2022-12-08T21:47:43.772Z,39.30
2022-12-08T21:50:15.864Z,40.20
2022-12-08T21:52:47.973Z,36.40
2022-12-08T21:55:20.403Z,31.50
2022-12-08T21:57:50.831Z,36.20
2022-12-08T22:00:24.317Z,32.80
2022-12-08T22:02:55.144Z,35.70
2022-12-08T22:05:25.786Z,33.30
2022-12-08T22:07:56.404Z,30.70
2022-12-08T22:10:27.392Z,34.30
2022-12-08T22:12:57.885Z,36.80
2022-12-08T22:15:29.809Z,34.00
2022-12-08T22:18:00.524Z,34.00
2022-12-08T22:20:31.478Z,41.20
2022-12-08T22:23:02.030Z,37.30
2022-12-08T22:25:32.588Z,34.30
2022-12-08T22:28:03.041Z,34.80
2022-12-08T22:30:38.859Z,40.10
2022-12-08T22:33:09.666Z,37.30
2022-12-08T22:35:40.041Z,36.20
2022-12-08T22:38:10.595Z,35.80
2022-12-08T22:40:43.545Z,29.80
2022-12-08T22:43:13.856Z,35.70
2022-12-08T22:45:44.692Z,33.00
2022-12-08T22:48:15.483Z,38.10
2022-12-08T22:50:47.045Z,35.60
2022-12-08T22:53:17.406Z,41.00
2022-12-08T22:55:48.140Z,36.50
2022-12-08T22:58:18.527Z,34.70
2022-12-08T23:00:49.182Z,38.80
2022-12-08T23:03:20.138Z,38.30
2022-12-08T23:05:51.002Z,33.60
2022-12-08T23:08:21.706Z,34.80
2022-12-08T23:10:53.327Z,37.20
2022-12-08T23:13:24.372Z,31.50
2022-12-08T23:15:54.849Z,36.80
2022-12-08T23:18:25.572Z,29.50
2022-12-08T23:20:55.966Z,32.70
2022-12-08T23:23:26.283Z,37.60
2022-12-08T23:25:56.699Z,34.00
2022-12-08T23:28:27.279Z,30.20
2022-12-08T23:30:57.769Z,32.70
2022-12-08T23:33:28.255Z,33.50
2022-12-08T23:35:59.998Z,32.20
2022-12-08T23:38:30.799Z,34.40
2022-12-08T23:41:05.377Z,36.50
2022-12-08T23:43:36.519Z,39.60
2022-12-08T23:46:07.716Z,32.00
2022-12-08T23:48:38.176Z,36.60
2022-12-08T23:51:08.898Z,36.70
2022-12-08T23:53:39.628Z,30.40
2022-12-08T23:56:13.501Z,34.50
2022-12-08T23:58:44.408Z,33.90
